sensor_id;sensor_type;location;lat;lon;timestamp;temperature;humidity
42097;DHT22;27754;45.414;11.084;2023-02-13T00:00:37;5.70;67.50
42097;DHT22;27754;45.414;11.084;2023-02-13T00:03:04;5.70;67.70
42097;DHT22;27754;45.414;11.084;2023-02-13T00:05:31;5.70;67.80
42097;DHT22;27754;45.414;11.084;2023-02-13T00:07:58;5.70;67.50
42097;DHT22;27754;45.414;11.084;2023-02-13T00:10:25;5.60;67.60
42097;DHT22;27754;45.414;11.084;2023-02-13T00:12:52;5.70;67.50
42097;DHT22;27754;45.414;11.084;2023-02-13T00:15:19;5.60;67.60
42097;DHT22;27754;45.414;11.084;2023-02-13T00:17:46;5.50;67.60
42097;DHT22;27754;45.414;11.084;2023-02-13T00:20:13;5.60;67.60
42097;DHT22;27754;45.414;11.084;2023-02-13T00:22:40;5.50;67.60
42097;DHT22;27754;45.414;11.084;2023-02-13T00:25:07;5.50;67.70
42097;DHT22;27754;45.414;11.084;2023-02-13T00:27:34;5.50;67.80
42097;DHT22;27754;45.414;11.084;2023-02-13T00:30:02;5.50;67.60
42097;DHT22;27754;45.414;11.084;2023-02-13T00:32:30;5.60;67.70
42097;DHT22;27754;45.414;11.084;2023-02-13T00:34:57;5.60;67.60
42097;DHT22;27754;45.414;11.084;2023-02-13T00:37:24;5.70;67.60
42097;DHT22;27754;45.414;11.084;2023-02-13T00:39:52;5.60;67.80
42097;DHT22;27754;45.414;11.084;2023-02-13T00:42:19;5.60;67.90
42097;DHT22;27754;45.414;11.084;2023-02-13T00:44:49;5.50;68.10
42097;DHT22;27754;45.414;11.084;2023-02-13T00:47:16;5.50;68.30
42097;DHT22;27754;45.414;11.084;2023-02-13T00:49:44;5.50;68.40
42097;DHT22;27754;45.414;11.084;2023-02-13T00:52:11;5.50;68.50
42097;DHT22;27754;45.414;11.084;2023-02-13T00:54:38;5.50;68.70
42097;DHT22;27754;45.414;11.084;2023-02-13T00:57:05;5.40;69.00
42097;DHT22;27754;45.414;11.084;2023-02-13T00:59:33;5.40;69.00
42097;DHT22;27754;45.414;11.084;2023-02-13T01:02:00;5.40;68.80
42097;DHT22;27754;45.414;11.084;2023-02-13T01:04:27;5.50;68.70
42097;DHT22;27754;45.414;11.084;2023-02-13T01:06:56;5.40;68.70
42097;DHT22;27754;45.414;11.084;2023-02-13T01:09:23;5.40;69.10
42097;DHT22;27754;45.414;11.084;2023-02-13T01:11:51;5.40;69.40
42097;DHT22;27754;45.414;11.084;2023-02-13T01:14:18;5.40;69.50
42097;DHT22;27754;45.414;11.084;2023-02-13T01:16:46;5.30;69.60
42097;DHT22;27754;45.414;11.084;2023-02-13T01:19:13;5.30;69.70
42097;DHT22;27754;45.414;11.084;2023-02-13T01:21:41;5.30;69.90
42097;DHT22;27754;45.414;11.084;2023-02-13T01:24:08;5.20;70.20
42097;DHT22;27754;45.414;11.084;2023-02-13T01:26:35;5.30;70.30
42097;DHT22;27754;45.414;11.084;2023-02-13T01:29:02;5.20;70.40
42097;DHT22;27754;45.414;11.084;2023-02-13T01:31:31;5.20;70.50
42097;DHT22;27754;45.414;11.084;2023-02-13T01:33:58;5.20;70.60
42097;DHT22;27754;45.414;11.084;2023-02-13T01:36:25;5.30;70.40
42097;DHT22;27754;45.414;11.084;2023-02-13T01:38:56;5.30;70.50
42097;DHT22;27754;45.414;11.084;2023-02-13T01:41:25;5.30;70.40
42097;DHT22;27754;45.414;11.084;2023-02-13T01:43:55;5.30;70.60
42097;DHT22;27754;45.414;11.084;2023-02-13T01:46:39;5.20;70.70
42097;DHT22;27754;45.414;11.084;2023-02-13T01:49:16;5.20;70.90
42097;DHT22;27754;45.414;11.084;2023-02-13T01:51:44;5.10;71.10
42097;DHT22;27754;45.414;11.084;2023-02-13T01:54:16;5.20;71.20
42097;DHT22;27754;45.414;11.084;2023-02-13T01:56:48;5.20;71.30
42097;DHT22;27754;45.414;11.084;2023-02-13T01:59:28;5.10;71.50
42097;DHT22;27754;45.414;11.084;2023-02-13T02:01:57;5.20;71.60
42097;DHT22;27754;45.414;11.084;2023-02-13T02:04:31;5.20;71.70
42097;DHT22;27754;45.414;11.084;2023-02-13T02:07:14;5.20;71.80
42097;DHT22;27754;45.414;11.084;2023-02-13T02:09:44;5.20;71.80
42097;DHT22;27754;45.414;11.084;2023-02-13T02:12:30;5.10;71.90
42097;DHT22;27754;45.414;11.084;2023-02-13T02:14:59;5.10;72.20
42097;DHT22;27754;45.414;11.084;2023-02-13T02:17:30;5.10;72.20
42097;DHT22;27754;45.414;11.084;2023-02-13T02:20:24;5.10;72.20
42097;DHT22;27754;45.414;11.084;2023-02-13T02:35:15;5.00;72.40
42097;DHT22;27754;45.414;11.084;2023-02-13T02:43:13;5.10;71.80
42097;DHT22;27754;45.414;11.084;2023-02-13T02:48:56;5.10;71.90
42097;DHT22;27754;45.414;11.084;2023-02-13T02:57:20;5.10;72.40
42097;DHT22;27754;45.414;11.084;2023-02-13T02:59:55;5.10;72.70
42097;DHT22;27754;45.414;11.084;2023-02-13T03:02:42;5.00;73.10
42097;DHT22;27754;45.414;11.084;2023-02-13T03:05:30;5.00;73.10
42097;DHT22;27754;45.414;11.084;2023-02-13T03:08:17;5.00;73.30
42097;DHT22;27754;45.414;11.084;2023-02-13T03:11:08;5.00;73.20
42097;DHT22;27754;45.414;11.084;2023-02-13T03:13:53;4.90;73.20
42097;DHT22;27754;45.414;11.084;2023-02-13T03:16:23;4.90;73.20
42097;DHT22;27754;45.414;11.084;2023-02-13T03:19:34;5.00;73.10
42097;DHT22;27754;45.414;11.084;2023-02-13T03:22:46;4.90;73.20
42097;DHT22;27754;45.414;11.084;2023-02-13T03:33:54;4.90;73.90
42097;DHT22;27754;45.414;11.084;2023-02-13T03:36:46;4.90;74.10
42097;DHT22;27754;45.414;11.084;2023-02-13T03:42:40;4.70;74.20
42097;DHT22;27754;45.414;11.084;2023-02-13T03:45:15;4.70;74.30
42097;DHT22;27754;45.414;11.084;2023-02-13T03:48:05;4.70;74.50
42097;DHT22;27754;45.414;11.084;2023-02-13T03:50:53;4.80;74.40
42097;DHT22;27754;45.414;11.084;2023-02-13T03:53:21;4.80;74.20
42097;DHT22;27754;45.414;11.084;2023-02-13T03:55:50;4.80;74.20
42097;DHT22;27754;45.414;11.084;2023-02-13T03:58:45;4.90;73.80
42097;DHT22;27754;45.414;11.084;2023-02-13T04:01:35;4.90;73.50
42097;DHT22;27754;45.414;11.084;2023-02-13T04:04:13;5.00;73.30
42097;DHT22;27754;45.414;11.084;2023-02-13T04:06:47;5.00;73.30
42097;DHT22;27754;45.414;11.084;2023-02-13T04:09:15;4.90;73.20
42097;DHT22;27754;45.414;11.084;2023-02-13T04:14:56;4.80;73.80
42097;DHT22;27754;45.414;11.084;2023-02-13T04:20:26;4.70;74.40
42097;DHT22;27754;45.414;11.084;2023-02-13T04:22:54;4.80;73.60
42097;DHT22;27754;45.414;11.084;2023-02-13T04:25:21;4.70;73.50
42097;DHT22;27754;45.414;11.084;2023-02-13T04:27:48;4.60;73.90
42097;DHT22;27754;45.414;11.084;2023-02-13T04:30:15;4.50;74.20
42097;DHT22;27754;45.414;11.084;2023-02-13T04:32:43;4.40;74.60
42097;DHT22;27754;45.414;11.084;2023-02-13T04:35:09;4.30;75.00
42097;DHT22;27754;45.414;11.084;2023-02-13T04:37:38;4.30;75.50
42097;DHT22;27754;45.414;11.084;2023-02-13T04:40:06;4.20;75.50
42097;DHT22;27754;45.414;11.084;2023-02-13T04:42:33;4.10;75.70
42097;DHT22;27754;45.414;11.084;2023-02-13T04:45:00;4.00;75.80
42097;DHT22;27754;45.414;11.084;2023-02-13T04:47:27;4.00;76.00
42097;DHT22;27754;45.414;11.084;2023-02-13T04:49:54;3.90;75.90
42097;DHT22;27754;45.414;11.084;2023-02-13T04:52:20;3.90;76.50
42097;DHT22;27754;45.414;11.084;2023-02-13T04:54:47;3.80;76.90
42097;DHT22;27754;45.414;11.084;2023-02-13T04:57:15;3.80;77.00
42097;DHT22;27754;45.414;11.084;2023-02-13T04:59:41;3.70;77.20
42097;DHT22;27754;45.414;11.084;2023-02-13T05:02:08;3.60;78.20
42097;DHT22;27754;45.414;11.084;2023-02-13T05:04:35;3.60;78.40
42097;DHT22;27754;45.414;11.084;2023-02-13T05:07:02;3.60;78.30
42097;DHT22;27754;45.414;11.084;2023-02-13T05:09:29;3.60;78.40
42097;DHT22;27754;45.414;11.084;2023-02-13T05:11:56;3.60;78.60
42097;DHT22;27754;45.414;11.084;2023-02-13T05:14:23;3.60;78.30
42097;DHT22;27754;45.414;11.084;2023-02-13T05:16:50;3.50;78.30
42097;DHT22;27754;45.414;11.084;2023-02-13T05:19:17;3.40;78.40
42097;DHT22;27754;45.414;11.084;2023-02-13T05:21:44;3.50;78.40
42097;DHT22;27754;45.414;11.084;2023-02-13T05:24:30;3.50;78.40
42097;DHT22;27754;45.414;11.084;2023-02-13T05:26:57;3.40;78.40
42097;DHT22;27754;45.414;11.084;2023-02-13T05:29:24;3.40;78.40
42097;DHT22;27754;45.414;11.084;2023-02-13T05:31:56;3.40;78.40
42097;DHT22;27754;45.414;11.084;2023-02-13T05:34:25;3.40;78.50
42097;DHT22;27754;45.414;11.084;2023-02-13T05:36:53;3.40;78.60
42097;DHT22;27754;45.414;11.084;2023-02-13T05:39:20;3.30;78.30
42097;DHT22;27754;45.414;11.084;2023-02-13T05:41:48;3.30;78.70
42097;DHT22;27754;45.414;11.084;2023-02-13T05:44:15;3.30;78.80
42097;DHT22;27754;45.414;11.084;2023-02-13T05:46:43;3.20;78.90
42097;DHT22;27754;45.414;11.084;2023-02-13T05:49:12;3.20;78.80
42097;DHT22;27754;45.414;11.084;2023-02-13T05:51:40;3.20;79.00
42097;DHT22;27754;45.414;11.084;2023-02-13T05:54:08;3.10;78.80
42097;DHT22;27754;45.414;11.084;2023-02-13T05:56:35;3.10;79.30
42097;DHT22;27754;45.414;11.084;2023-02-13T05:59:02;3.10;79.40
42097;DHT22;27754;45.414;11.084;2023-02-13T06:01:29;2.90;79.50
42097;DHT22;27754;45.414;11.084;2023-02-13T06:03:56;2.90;80.00
42097;DHT22;27754;45.414;11.084;2023-02-13T06:06:25;2.90;79.90
42097;DHT22;27754;45.414;11.084;2023-02-13T06:08:52;2.80;80.10
42097;DHT22;27754;45.414;11.084;2023-02-13T06:11:20;2.80;80.40
42097;DHT22;27754;45.414;11.084;2023-02-13T06:13:47;2.80;80.60
42097;DHT22;27754;45.414;11.084;2023-02-13T06:16:14;2.80;80.40
42097;DHT22;27754;45.414;11.084;2023-02-13T06:18:41;2.80;80.20
42097;DHT22;27754;45.414;11.084;2023-02-13T06:21:08;2.60;80.70
42097;DHT22;27754;45.414;11.084;2023-02-13T06:23:35;2.60;81.00
42097;DHT22;27754;45.414;11.084;2023-02-13T06:26:06;2.60;81.10
42097;DHT22;27754;45.414;11.084;2023-02-13T06:28:33;2.70;81.00
42097;DHT22;27754;45.414;11.084;2023-02-13T06:31:00;2.80;80.60
42097;DHT22;27754;45.414;11.084;2023-02-13T06:33:28;2.70;80.50
42097;DHT22;27754;45.414;11.084;2023-02-13T06:35:55;2.80;80.70
42097;DHT22;27754;45.414;11.084;2023-02-13T06:38:22;2.80;80.60
42097;DHT22;27754;45.414;11.084;2023-02-13T06:40:50;2.90;80.50
42097;DHT22;27754;45.414;11.084;2023-02-13T06:43:17;2.80;79.90
42097;DHT22;27754;45.414;11.084;2023-02-13T06:45:44;2.80;80.50
42097;DHT22;27754;45.414;11.084;2023-02-13T06:48:13;2.80;80.60
42097;DHT22;27754;45.414;11.084;2023-02-13T06:50:40;3.00;80.40
42097;DHT22;27754;45.414;11.084;2023-02-13T06:53:07;3.10;80.30
42097;DHT22;27754;45.414;11.084;2023-02-13T06:55:35;3.10;79.80
42097;DHT22;27754;45.414;11.084;2023-02-13T06:58:02;3.20;79.50
42097;DHT22;27754;45.414;11.084;2023-02-13T07:00:29;3.30;79.70
42097;DHT22;27754;45.414;11.084;2023-02-13T07:03:01;3.30;79.10
42097;DHT22;27754;45.414;11.084;2023-02-13T07:05:30;3.40;79.50
42097;DHT22;27754;45.414;11.084;2023-02-13T07:07:57;3.40;79.20
42097;DHT22;27754;45.414;11.084;2023-02-13T07:10:24;3.40;79.30
42097;DHT22;27754;45.414;11.084;2023-02-13T07:12:51;3.40;79.10
42097;DHT22;27754;45.414;11.084;2023-02-13T07:15:32;3.50;78.80
42097;DHT22;27754;45.414;11.084;2023-02-13T07:18:00;3.60;78.80
42097;DHT22;27754;45.414;11.084;2023-02-13T07:20:28;3.70;78.50
42097;DHT22;27754;45.414;11.084;2023-02-13T07:22:59;3.80;78.10
42097;DHT22;27754;45.414;11.084;2023-02-13T07:25:27;3.80;77.80
42097;DHT22;27754;45.414;11.084;2023-02-13T07:27:54;3.90;77.90
42097;DHT22;27754;45.414;11.084;2023-02-13T07:30:21;3.90;77.90
42097;DHT22;27754;45.414;11.084;2023-02-13T07:32:48;4.00;78.00
42097;DHT22;27754;45.414;11.084;2023-02-13T07:35:15;4.20;77.80
42097;DHT22;27754;45.414;11.084;2023-02-13T07:37:42;4.40;77.40
42097;DHT22;27754;45.414;11.084;2023-02-13T07:40:09;4.60;77.00
42097;DHT22;27754;45.414;11.084;2023-02-13T07:42:36;4.70;76.70
42097;DHT22;27754;45.414;11.084;2023-02-13T07:45:03;4.90;76.80
42097;DHT22;27754;45.414;11.084;2023-02-13T07:47:33;5.00;76.10
42097;DHT22;27754;45.414;11.084;2023-02-13T07:50:02;5.20;75.60
42097;DHT22;27754;45.414;11.084;2023-02-13T07:52:29;5.40;75.30
42097;DHT22;27754;45.414;11.084;2023-02-13T07:54:56;5.40;74.50
42097;DHT22;27754;45.414;11.084;2023-02-13T07:57:23;5.50;74.50
42097;DHT22;27754;45.414;11.084;2023-02-13T07:59:49;5.50;73.90
42097;DHT22;27754;45.414;11.084;2023-02-13T08:02:17;5.70;74.00
42097;DHT22;27754;45.414;11.084;2023-02-13T08:04:44;5.80;73.50
42097;DHT22;27754;45.414;11.084;2023-02-13T08:07:13;5.90;73.30
42097;DHT22;27754;45.414;11.084;2023-02-13T08:09:43;6.00;73.10
42097;DHT22;27754;45.414;11.084;2023-02-13T08:12:30;6.10;73.20
42097;DHT22;27754;45.414;11.084;2023-02-13T08:14:57;6.20;73.40
42097;DHT22;27754;45.414;11.084;2023-02-13T08:17:24;6.30;73.20
42097;DHT22;27754;45.414;11.084;2023-02-13T08:19:51;6.40;73.40
42097;DHT22;27754;45.414;11.084;2023-02-13T08:22:18;6.50;72.90
42097;DHT22;27754;45.414;11.084;2023-02-13T08:24:45;6.70;72.80
42097;DHT22;27754;45.414;11.084;2023-02-13T08:27:13;6.80;72.50
42097;DHT22;27754;45.414;11.084;2023-02-13T08:29:40;6.80;72.50
42097;DHT22;27754;45.414;11.084;2023-02-13T08:32:07;6.90;72.70
42097;DHT22;27754;45.414;11.084;2023-02-13T08:34:35;7.00;72.20
42097;DHT22;27754;45.414;11.084;2023-02-13T08:37:02;7.10;71.60
42097;DHT22;27754;45.414;11.084;2023-02-13T08:39:29;7.10;71.10
42097;DHT22;27754;45.414;11.084;2023-02-13T08:41:56;7.20;71.60
42097;DHT22;27754;45.414;11.084;2023-02-13T08:44:23;7.20;71.50
42097;DHT22;27754;45.414;11.084;2023-02-13T08:46:50;7.30;71.20
42097;DHT22;27754;45.414;11.084;2023-02-13T08:49:17;7.40;70.50
42097;DHT22;27754;45.414;11.084;2023-02-13T08:51:44;7.50;70.30
42097;DHT22;27754;45.414;11.084;2023-02-13T08:54:12;7.50;70.50
42097;DHT22;27754;45.414;11.084;2023-02-13T08:56:38;7.60;69.80
42097;DHT22;27754;45.414;11.084;2023-02-13T08:59:05;7.70;69.40
42097;DHT22;27754;45.414;11.084;2023-02-13T09:01:32;7.80;69.30
42097;DHT22;27754;45.414;11.084;2023-02-13T09:03:59;7.90;69.30
42097;DHT22;27754;45.414;11.084;2023-02-13T09:06:26;8.00;69.20
42097;DHT22;27754;45.414;11.084;2023-02-13T09:08:54;8.00;68.50
42097;DHT22;27754;45.414;11.084;2023-02-13T09:11:21;8.00;67.70
42097;DHT22;27754;45.414;11.084;2023-02-13T09:13:52;8.10;68.10
42097;DHT22;27754;45.414;11.084;2023-02-13T09:16:20;8.10;68.20
42097;DHT22;27754;45.414;11.084;2023-02-13T09:18:48;8.20;68.50
42097;DHT22;27754;45.414;11.084;2023-02-13T09:21:17;8.30;68.70
42097;DHT22;27754;45.414;11.084;2023-02-13T09:23:44;8.40;68.80
42097;DHT22;27754;45.414;11.084;2023-02-13T09:26:13;8.40;68.20
42097;DHT22;27754;45.414;11.084;2023-02-13T09:28:42;8.50;67.70
42097;DHT22;27754;45.414;11.084;2023-02-13T09:31:14;8.60;67.50
42097;DHT22;27754;45.414;11.084;2023-02-13T09:33:43;8.60;67.90
42097;DHT22;27754;45.414;11.084;2023-02-13T09:36:14;8.70;67.50
42097;DHT22;27754;45.414;11.084;2023-02-13T09:38:41;8.70;68.00
42097;DHT22;27754;45.414;11.084;2023-02-13T09:41:20;8.80;67.90
42097;DHT22;27754;45.414;11.084;2023-02-13T09:43:51;8.90;67.30
42097;DHT22;27754;45.414;11.084;2023-02-13T09:46:22;8.90;66.80
42097;DHT22;27754;45.414;11.084;2023-02-13T09:48:53;9.00;66.30
42097;DHT22;27754;45.414;11.084;2023-02-13T09:51:22;9.10;65.90
42097;DHT22;27754;45.414;11.084;2023-02-13T09:59:41;9.00;66.20
42097;DHT22;27754;45.414;11.084;2023-02-13T10:02:52;9.20;66.80
42097;DHT22;27754;45.414;11.084;2023-02-13T10:14:00;9.60;65.80
42097;DHT22;27754;45.414;11.084;2023-02-13T10:16:35;9.60;65.70
42097;DHT22;27754;45.414;11.084;2023-02-13T10:19:26;9.70;64.60
42097;DHT22;27754;45.414;11.084;2023-02-13T10:22:16;9.70;65.30
42097;DHT22;27754;45.414;11.084;2023-02-13T10:25:02;9.80;65.00
42097;DHT22;27754;45.414;11.084;2023-02-13T10:27:42;9.90;64.70
42097;DHT22;27754;45.414;11.084;2023-02-13T10:30:14;9.90;64.30
42097;DHT22;27754;45.414;11.084;2023-02-13T10:39:28;10.10;63.90
42097;DHT22;27754;45.414;11.084;2023-02-13T10:44:53;10.20;64.40
42097;DHT22;27754;45.414;11.084;2023-02-13T10:55:59;10.40;65.10
42097;DHT22;27754;45.414;11.084;2023-02-13T11:04:12;10.50;63.80
42097;DHT22;27754;45.414;11.084;2023-02-13T11:09:21;10.60;63.50
42097;DHT22;27754;45.414;11.084;2023-02-13T11:11:48;10.70;63.50
42097;DHT22;27754;45.414;11.084;2023-02-13T11:14:24;10.70;63.40
42097;DHT22;27754;45.414;11.084;2023-02-13T11:17:21;10.80;63.10
42097;DHT22;27754;45.414;11.084;2023-02-13T11:19:51;10.80;63.00
42097;DHT22;27754;45.414;11.084;2023-02-13T11:22:34;10.80;62.80
42097;DHT22;27754;45.414;11.084;2023-02-13T11:27:44;10.80;62.30
42097;DHT22;27754;45.414;11.084;2023-02-13T11:30:31;10.90;62.60
42097;DHT22;27754;45.414;11.084;2023-02-13T11:33:01;10.90;62.60
42097;DHT22;27754;45.414;11.084;2023-02-13T11:41:13;11.00;61.50
42097;DHT22;27754;45.414;11.084;2023-02-13T11:43:59;11.10;61.20
42097;DHT22;27754;45.414;11.084;2023-02-13T11:46:29;11.10;61.70
42097;DHT22;27754;45.414;11.084;2023-02-13T11:49:00;11.10;60.70
42097;DHT22;27754;45.414;11.084;2023-02-13T11:51:45;11.10;60.90
42097;DHT22;27754;45.414;11.084;2023-02-13T11:54:26;11.10;61.70
42097;DHT22;27754;45.414;11.084;2023-02-13T11:56:57;11.30;61.70
42097;DHT22;27754;45.414;11.084;2023-02-13T11:59:39;11.30;61.30
42097;DHT22;27754;45.414;11.084;2023-02-13T12:04:41;11.40;61.90
42097;DHT22;27754;45.414;11.084;2023-02-13T12:07:28;11.50;61.60
42097;DHT22;27754;45.414;11.084;2023-02-13T12:10:01;11.50;61.50
42097;DHT22;27754;45.414;11.084;2023-02-13T12:12:39;11.50;61.40
42097;DHT22;27754;45.414;11.084;2023-02-13T12:15:24;11.40;61.20
42097;DHT22;27754;45.414;11.084;2023-02-13T12:20:34;11.70;61.10
42097;DHT22;27754;45.414;11.084;2023-02-13T12:23:28;11.70;61.30
42097;DHT22;27754;45.414;11.084;2023-02-13T12:26:30;11.80;61.10
42097;DHT22;27754;45.414;11.084;2023-02-13T12:37:47;11.70;61.00
42097;DHT22;27754;45.414;11.084;2023-02-13T12:46:04;11.80;61.00
42097;DHT22;27754;45.414;11.084;2023-02-13T12:54:44;12.10;59.80
42097;DHT22;27754;45.414;11.084;2023-02-13T13:00:17;12.00;60.20
42097;DHT22;27754;45.414;11.084;2023-02-13T13:14:45;12.20;59.30
42097;DHT22;27754;45.414;11.084;2023-02-13T13:28:06;12.30;59.40
42097;DHT22;27754;45.414;11.084;2023-02-13T13:30:37;12.40;59.40
42097;DHT22;27754;45.414;11.084;2023-02-13T13:33:16;12.40;59.60
42097;DHT22;27754;45.414;11.084;2023-02-13T13:41:21;12.40;59.60
42097;DHT22;27754;45.414;11.084;2023-02-13T13:49:59;12.40;59.20
42097;DHT22;27754;45.414;11.084;2023-02-13T13:52:35;12.50;59.10
42097;DHT22;27754;45.414;11.084;2023-02-13T13:55:09;12.50;58.70
42097;DHT22;27754;45.414;11.084;2023-02-13T13:57:59;12.60;59.10
42097;DHT22;27754;45.414;11.084;2023-02-13T14:00:29;12.60;59.10
42097;DHT22;27754;45.414;11.084;2023-02-13T14:03:21;12.50;59.10
42097;DHT22;27754;45.414;11.084;2023-02-13T14:06:22;12.60;59.00
42097;DHT22;27754;45.414;11.084;2023-02-13T14:09:02;12.60;59.20
42097;DHT22;27754;45.414;11.084;2023-02-13T14:11:41;12.60;59.10
42097;DHT22;27754;45.414;11.084;2023-02-13T14:16:58;12.50;58.90
42097;DHT22;27754;45.414;11.084;2023-02-13T14:19:33;12.50;59.40
42097;DHT22;27754;45.414;11.084;2023-02-13T14:22:36;12.40;59.30
42097;DHT22;27754;45.414;11.084;2023-02-13T14:25:06;12.40;59.10
42097;DHT22;27754;45.414;11.084;2023-02-13T14:27:40;12.40;59.40
42097;DHT22;27754;45.414;11.084;2023-02-13T14:30:28;12.40;59.20
42097;DHT22;27754;45.414;11.084;2023-02-13T14:32:59;12.40;59.40
42097;DHT22;27754;45.414;11.084;2023-02-13T14:35:29;12.30;59.40
42097;DHT22;27754;45.414;11.084;2023-02-13T14:37:59;12.20;59.40
42097;DHT22;27754;45.414;11.084;2023-02-13T14:43:32;12.20;59.40
42097;DHT22;27754;45.414;11.084;2023-02-13T14:46:21;12.20;59.80
42097;DHT22;27754;45.414;11.084;2023-02-13T14:51:37;12.10;60.00
42097;DHT22;27754;45.414;11.084;2023-02-13T14:56:36;12.00;60.30
42097;DHT22;27754;45.414;11.084;2023-02-13T14:59:29;12.00;60.30
42097;DHT22;27754;45.414;11.084;2023-02-13T15:05:01;11.90;60.50
42097;DHT22;27754;45.414;11.084;2023-02-13T15:07:33;11.90;60.70
42097;DHT22;27754;45.414;11.084;2023-02-13T15:10:05;11.90;60.80
42097;DHT22;27754;45.414;11.084;2023-02-13T15:12:40;11.90;60.80
42097;DHT22;27754;45.414;11.084;2023-02-13T15:15:25;11.80;60.90
42097;DHT22;27754;45.414;11.084;2023-02-13T15:17:57;11.80;61.20
42097;DHT22;27754;45.414;11.084;2023-02-13T15:20:31;11.70;61.20
42097;DHT22;27754;45.414;11.084;2023-02-13T15:22:59;11.70;61.20
42097;DHT22;27754;45.414;11.084;2023-02-13T15:25:37;11.60;61.20
42097;DHT22;27754;45.414;11.084;2023-02-13T15:28:06;11.60;61.30
42097;DHT22;27754;45.414;11.084;2023-02-13T15:30:36;11.60;61.30
42097;DHT22;27754;45.414;11.084;2023-02-13T15:33:15;11.50;61.50
42097;DHT22;27754;45.414;11.084;2023-02-13T15:35:43;11.50;61.90
42097;DHT22;27754;45.414;11.084;2023-02-13T15:38:24;11.40;62.00
42097;DHT22;27754;45.414;11.084;2023-02-13T15:40:55;11.40;62.10
42097;DHT22;27754;45.414;11.084;2023-02-13T15:43:45;11.30;62.10
42097;DHT22;27754;45.414;11.084;2023-02-13T15:46:27;11.30;62.40
42097;DHT22;27754;45.414;11.084;2023-02-13T15:48:58;11.30;62.70
42097;DHT22;27754;45.414;11.084;2023-02-13T15:51:28;11.20;63.00
42097;DHT22;27754;45.414;11.084;2023-02-13T15:56:29;11.00;63.20
42097;DHT22;27754;45.414;11.084;2023-02-13T15:58:58;11.00;63.40
42097;DHT22;27754;45.414;11.084;2023-02-13T16:01:27;11.00;63.40
42097;DHT22;27754;45.414;11.084;2023-02-13T16:04:04;10.90;63.50
42097;DHT22;27754;45.414;11.084;2023-02-13T16:06:32;10.90;63.80
42097;DHT22;27754;45.414;11.084;2023-02-13T16:09:01;10.80;64.20
42097;DHT22;27754;45.414;11.084;2023-02-13T16:16:27;10.60;65.10
42097;DHT22;27754;45.414;11.084;2023-02-13T16:18:55;10.40;65.20
42097;DHT22;27754;45.414;11.084;2023-02-13T16:21:27;10.40;65.30
42097;DHT22;27754;45.414;11.084;2023-02-13T16:24:03;10.30;65.50
42097;DHT22;27754;45.414;11.084;2023-02-13T16:26:34;10.20;65.70
42097;DHT22;27754;45.414;11.084;2023-02-13T16:29:02;10.10;65.80
42097;DHT22;27754;45.414;11.084;2023-02-13T16:31:33;10.10;65.90
42097;DHT22;27754;45.414;11.084;2023-02-13T16:36:48;9.90;66.40
42097;DHT22;27754;45.414;11.084;2023-02-13T16:39:21;9.90;66.50
42097;DHT22;27754;45.414;11.084;2023-02-13T16:41:52;9.80;66.70
42097;DHT22;27754;45.414;11.084;2023-02-13T16:44:31;9.60;67.20
42097;DHT22;27754;45.414;11.084;2023-02-13T16:47:03;9.50;67.60
42097;DHT22;27754;45.414;11.084;2023-02-13T16:49:32;9.40;67.80
42097;DHT22;27754;45.414;11.084;2023-02-13T16:52:46;9.30;68.20
42097;DHT22;27754;45.414;11.084;2023-02-13T16:55:13;9.20;68.40
42097;DHT22;27754;45.414;11.084;2023-02-13T16:57:41;9.10;68.80
42097;DHT22;27754;45.414;11.084;2023-02-13T17:00:20;9.00;69.00
42097;DHT22;27754;45.414;11.084;2023-02-13T17:02:51;8.90;69.30
42097;DHT22;27754;45.414;11.084;2023-02-13T17:05:22;8.90;69.60
42097;DHT22;27754;45.414;11.084;2023-02-13T17:07:54;8.80;69.80
42097;DHT22;27754;45.414;11.084;2023-02-13T17:10:56;8.70;69.90
42097;DHT22;27754;45.414;11.084;2023-02-13T17:13:16;8.60;70.00
42097;DHT22;27754;45.414;11.084;2023-02-13T17:15:46;8.60;70.30
42097;DHT22;27754;45.414;11.084;2023-02-13T17:18:13;8.60;70.60
42097;DHT22;27754;45.414;11.084;2023-02-13T17:20:42;8.60;70.80
42097;DHT22;27754;45.414;11.084;2023-02-13T17:23:16;8.50;70.70
42097;DHT22;27754;45.414;11.084;2023-02-13T17:25:43;8.50;70.80
42097;DHT22;27754;45.414;11.084;2023-02-13T17:28:15;8.40;71.00
42097;DHT22;27754;45.414;11.084;2023-02-13T17:30:44;8.40;71.30
42097;DHT22;27754;45.414;11.084;2023-02-13T17:33:14;8.40;71.40
42097;DHT22;27754;45.414;11.084;2023-02-13T17:35:42;8.50;71.40
42097;DHT22;27754;45.414;11.084;2023-02-13T17:38:09;8.50;71.30
42097;DHT22;27754;45.414;11.084;2023-02-13T17:40:36;8.60;71.20
42097;DHT22;27754;45.414;11.084;2023-02-13T17:43:03;8.70;71.00
42097;DHT22;27754;45.414;11.084;2023-02-13T17:45:32;8.70;70.80
42097;DHT22;27754;45.414;11.084;2023-02-13T17:47:59;8.80;70.40
42097;DHT22;27754;45.414;11.084;2023-02-13T17:50:28;8.80;70.40
42097;DHT22;27754;45.414;11.084;2023-02-13T17:52:55;8.80;70.40
42097;DHT22;27754;45.414;11.084;2023-02-13T17:55:28;8.80;70.40
42097;DHT22;27754;45.414;11.084;2023-02-13T17:57:57;8.80;70.20
42097;DHT22;27754;45.414;11.084;2023-02-13T18:00:26;8.70;70.60
42097;DHT22;27754;45.414;11.084;2023-02-13T18:02:54;8.60;70.80
42097;DHT22;27754;45.414;11.084;2023-02-13T18:05:22;8.50;70.90
42097;DHT22;27754;45.414;11.084;2023-02-13T18:07:49;8.40;71.30
42097;DHT22;27754;45.414;11.084;2023-02-13T18:10:22;8.40;71.30
42097;DHT22;27754;45.414;11.084;2023-02-13T18:12:51;8.40;71.40
42097;DHT22;27754;45.414;11.084;2023-02-13T18:15:18;8.30;71.60
42097;DHT22;27754;45.414;11.084;2023-02-13T18:17:46;8.20;71.90
42097;DHT22;27754;45.414;11.084;2023-02-13T18:20:16;8.10;72.00
42097;DHT22;27754;45.414;11.084;2023-02-13T18:22:43;7.90;72.50
42097;DHT22;27754;45.414;11.084;2023-02-13T18:25:11;7.90;72.70
42097;DHT22;27754;45.414;11.084;2023-02-13T18:27:39;7.80;73.20
42097;DHT22;27754;45.414;11.084;2023-02-13T18:30:07;7.80;73.40
42097;DHT22;27754;45.414;11.084;2023-02-13T18:32:34;7.70;73.50
42097;DHT22;27754;45.414;11.084;2023-02-13T19:14:38;6.90;74.70
42097;DHT22;27754;45.414;11.084;2023-02-13T19:17:30;6.80;75.10
42097;DHT22;27754;45.414;11.084;2023-02-13T19:28:58;6.60;75.10
42097;DHT22;27754;45.414;11.084;2023-02-13T19:54:00;6.30;75.00
42097;DHT22;27754;45.414;11.084;2023-02-13T20:00:53;6.20;75.50
42097;DHT22;27754;45.414;11.084;2023-02-13T20:07:47;6.20;74.90
42097;DHT22;27754;45.414;11.084;2023-02-13T20:10:14;6.30;75.60
42097;DHT22;27754;45.414;11.084;2023-02-13T20:12:43;6.20;75.40
42097;DHT22;27754;45.414;11.084;2023-02-13T20:15:10;6.20;75.50
42097;DHT22;27754;45.414;11.084;2023-02-13T20:17:37;6.20;75.10